Time;durP1;ratioP1;P1;durP2;ratioP2;P2;SDS_P1;SDS_P2;PMS_P1;PMS_P2;Temp;Humidity;BMP_temperature;BMP_pressure;BME280_temperature;BME280_humidity;BME280_pressure;Samples;Min_cycle;Max_cycle;Signal;HPM_P1;HPM_P2
2023/06/19 00:00:12;;;;;;;1999.90;999.90;;;22.40;99.90;;;;;;5012604;28;20256;-67
2023/06/19 00:02:39;;;;;;;1999.90;999.90;;;22.30;99.90;;;;;;5012076;28;20263;-67
2023/06/19 00:05:06;;;;;;;1999.90;999.90;;;22.40;99.90;;;;;;5014243;28;20426;-66
2023/06/19 00:07:31;;;;;;;1999.90;999.90;;;22.40;99.90;;;;;;5016110;28;20476;-67
2023/06/19 00:09:57;;;;;;;1999.90;999.90;;;22.40;99.90;;;;;;5015822;28;20449;-68
2023/06/19 00:12:22;;;;;;;1999.90;999.90;;;22.40;99.90;;;;;;5015794;28;20594;-67
2023/06/19 00:14:48;;;;;;;1999.90;999.90;;;22.30;99.90;;;;;;5015906;28;20185;-68
2023/06/19 00:17:16;;;;;;;1999.90;999.90;;;22.30;99.90;;;;;;5015965;28;20174;-68
2023/06/19 00:19:42;;;;;;;1999.90;999.90;;;22.30;99.90;;;;;;5016032;28;20180;-68
2023/06/19 00:22:08;;;;;;;1999.90;999.90;;;22.20;99.90;;;;;;5015576;28;20739;-67
2023/06/19 00:24:34;;;;;;;1999.90;999.90;;;22.20;99.90;;;;;;5015692;28;20427;-67
2023/06/19 00:27:02;;;;;;;1999.90;999.90;;;22.20;99.90;;;;;;5016178;28;20720;-66
2023/06/19 00:29:32;;;;;;;1999.90;999.90;;;22.20;99.90;;;;;;5015953;28;20181;-68
2023/06/19 00:31:58;;;;;;;1999.90;999.90;;;22.10;99.90;;;;;;5015995;28;20427;-67
2023/06/19 00:34:24;;;;;;;1999.90;999.90;;;22.20;99.90;;;;;;5016086;28;20413;-67
2023/06/19 00:36:50;;;;;;;1999.90;999.90;;;22.20;99.90;;;;;;5015807;28;20382;-67
2023/06/19 00:39:16;;;;;;;1999.90;999.90;;;22.20;99.90;;;;;;5015362;28;20169;-67
2023/06/19 00:41:43;;;;;;;1999.90;999.90;;;22.20;99.90;;;;;;5015138;28;20383;-67
2023/06/19 00:44:09;;;;;;;1999.90;999.90;;;22.20;99.90;;;;;;5014935;28;20223;-68
2023/06/19 00:46:40;;;;;;;1999.90;999.90;;;22.20;99.90;;;;;;5015234;28;20944;-68
2023/06/19 00:49:07;;;;;;;1999.90;999.90;;;22.20;99.90;;;;;;5015151;28;20459;-67
2023/06/19 00:51:33;;;;;;;1999.90;999.90;;;22.10;99.90;;;;;;5014906;28;20422;-67
2023/06/19 00:53:59;;;;;;;1999.90;999.90;;;22.10;99.90;;;;;;5015230;28;20984;-67
2023/06/19 00:56:25;;;;;;;1999.90;999.90;;;22.10;99.90;;;;;;5014876;28;20192;-67
2023/06/19 00:58:52;;;;;;;1999.90;999.90;;;22.10;99.90;;;;;;5014837;28;20411;-68
2023/06/19 01:01:19;;;;;;;1999.90;999.90;;;22.20;99.90;;;;;;5014695;28;20200;-68
2023/06/19 01:03:44;;;;;;;1999.90;999.90;;;22.20;99.90;;;;;;5014933;28;20501;-68
2023/06/19 01:06:15;;;;;;;1999.90;999.90;;;22.20;99.90;;;;;;5014758;28;20415;-68
2023/06/19 01:08:55;;;;;;;1999.90;999.90;;;22.20;99.90;;;;;;5014893;28;20580;-67
2023/06/19 01:11:25;;;;;;;1999.90;999.90;;;22.30;99.90;;;;;;5014389;28;20877;-67
2023/06/19 01:13:58;;;;;;;1999.90;999.90;;;22.30;99.90;;;;;;5014433;28;20456;-67
2023/06/19 01:16:27;;;;;;;1999.90;999.90;;;22.40;99.90;;;;;;5013192;28;20484;-68
2023/06/19 01:18:54;;;;;;;1999.90;999.90;;;22.50;99.90;;;;;;5013685;28;20471;-67
2023/06/19 01:21:20;;;;;;;1999.90;999.90;;;22.50;99.90;;;;;;5012344;28;20411;-67
2023/06/19 01:23:46;;;;;;;1999.90;999.90;;;22.50;99.90;;;;;;5013515;28;20429;-68
2023/06/19 01:26:13;;;;;;;1999.90;999.90;;;22.50;99.90;;;;;;5014637;28;20412;-68
2023/06/19 01:28:41;;;;;;;1999.90;999.90;;;22.50;99.90;;;;;;5014056;28;20862;-67
2023/06/19 01:31:21;;;;;;;1999.90;999.90;;;22.50;99.90;;;;;;5014040;28;20374;-68
2023/06/19 01:33:49;;;;;;;1999.90;999.90;;;22.50;99.90;;;;;;5014081;28;20487;-67
2023/06/19 01:36:17;;;;;;;1999.90;999.90;;;22.50;99.90;;;;;;5014050;28;20806;-67
2023/06/19 01:38:45;;;;;;;1999.90;999.90;;;22.50;99.90;;;;;;5014067;28;20404;-67
2023/06/19 01:41:11;;;;;;;1999.90;999.90;;;22.50;99.90;;;;;;5013532;28;21180;-68
2023/06/19 01:43:37;;;;;;;1999.90;999.90;;;22.50;99.90;;;;;;5013657;28;20469;-68
2023/06/19 01:46:03;;;;;;;1999.90;999.90;;;22.50;99.90;;;;;;5013917;28;20414;-67
2023/06/19 01:48:29;;;;;;;1999.90;999.90;;;22.50;99.90;;;;;;5013716;28;20506;-68
2023/06/19 01:50:55;;;;;;;1999.90;999.90;;;22.50;99.90;;;;;;5013582;28;20821;-68
2023/06/19 01:53:20;;;;;;;1999.90;999.90;;;22.50;99.90;;;;;;5013611;28;20200;-67
2023/06/19 01:55:46;;;;;;;1999.90;999.90;;;22.40;99.90;;;;;;5013481;28;20185;-67
2023/06/19 01:58:12;;;;;;;1999.90;999.90;;;22.50;99.90;;;;;;5013845;28;20172;-66
2023/06/19 02:00:37;;;;;;;1999.90;999.90;;;22.40;99.90;;;;;;5013679;28;20241;-67
2023/06/19 02:03:04;;;;;;;1999.90;999.90;;;22.40;99.90;;;;;;5013488;28;20708;-67
2023/06/19 02:05:34;;;;;;;1999.90;999.90;;;22.50;99.90;;;;;;5013660;28;20193;-67
2023/06/19 02:07:59;;;;;;;1999.90;999.90;;;22.50;99.90;;;;;;5013511;28;20448;-68
2023/06/19 02:10:25;;;;;;;1999.90;999.90;;;22.50;99.90;;;;;;5013928;28;20877;-67
2023/06/19 02:12:50;;;;;;;1999.90;999.90;;;22.60;99.90;;;;;;5013589;28;20166;-67
2023/06/19 02:15:16;;;;;;;1999.90;999.90;;;22.70;99.90;;;;;;5013494;28;20532;-68
2023/06/19 02:17:42;;;;;;;1999.90;999.90;;;22.70;99.90;;;;;;5013628;28;20177;-67
2023/06/19 02:20:11;;;;;;;1999.90;999.90;;;22.70;99.90;;;;;;5013260;28;20181;-67
2023/06/19 02:22:38;;;;;;;1999.90;999.90;;;22.70;99.90;;;;;;5012725;28;20470;-66
2023/06/19 02:25:04;;;;;;;1999.90;999.90;;;22.70;99.90;;;;;;5013019;28;20406;-67
2023/06/19 02:27:30;;;;;;;1999.90;999.90;;;22.70;99.90;;;;;;5012425;28;20491;-68
2023/06/19 02:29:56;;;;;;;1999.90;999.90;;;22.60;99.90;;;;;;5013145;28;20386;-68
2023/06/19 02:32:21;;;;;;;1999.90;999.90;;;22.50;99.90;;;;;;5012727;28;20697;-67
2023/06/19 02:34:47;;;;;;;1999.90;999.90;;;22.50;99.90;;;;;;5012792;28;20196;-67
2023/06/19 02:37:12;;;;;;;1999.90;999.90;;;22.40;99.90;;;;;;5012872;28;20177;-67
2023/06/19 02:39:38;;;;;;;1999.90;999.90;;;22.40;99.90;;;;;;5012924;28;20196;-67
2023/06/19 02:42:04;;;;;;;1999.90;999.90;;;22.30;99.90;;;;;;5012547;28;20171;-67
2023/06/19 02:44:30;;;;;;;1999.90;999.90;;;22.20;99.90;;;;;;5012816;28;20228;-67
2023/06/19 02:46:55;;;;;;;1999.90;999.90;;;22.20;99.90;;;;;;5012993;28;20759;-67
2023/06/19 02:49:21;;;;;;;1999.90;999.90;;;22.20;99.90;;;;;;5013090;28;20183;-68
2023/06/19 02:51:46;;;;;;;1999.90;999.90;;;22.20;99.90;;;;;;5012684;28;20180;-67
2023/06/19 02:54:12;;;;;;;1999.90;999.90;;;22.10;99.90;;;;;;5013230;28;20224;-67
2023/06/19 02:56:38;;;;;;;1999.90;999.90;;;22.00;99.90;;;;;;5013265;28;20168;-67
2023/06/19 02:59:04;;;;;;;1999.90;999.90;;;21.90;99.90;;;;;;5013814;28;20172;-68
2023/06/19 03:01:30;;;;;;;1999.90;999.90;;;21.80;99.90;;;;;;5012400;28;20502;-67
2023/06/19 03:03:55;;;;;;;1999.90;999.90;;;21.80;99.90;;;;;;5013952;28;20203;-67
2023/06/19 03:06:21;;;;;;;1999.90;999.90;;;21.80;99.90;;;;;;5015272;28;20184;-67
2023/06/19 03:08:47;;;;;;;1999.90;999.90;;;21.80;99.90;;;;;;5013631;28;20215;-67
2023/06/19 03:11:13;;;;;;;1999.90;999.90;;;21.70;99.90;;;;;;5013449;28;20226;-66
2023/06/19 03:13:51;;;;;;;1999.90;999.90;;;21.70;99.90;;;;;;5014076;28;20183;-67
2023/06/19 03:16:18;;;;;;;1999.90;999.90;;;21.60;99.90;;;;;;5015366;28;20945;-68
2023/06/19 03:18:44;;;;;;;1999.90;999.90;;;21.50;99.90;;;;;;5014004;28;20419;-68
2023/06/19 03:21:11;;;;;;;1999.90;999.90;;;21.40;99.90;;;;;;5014154;28;20502;-67
2023/06/19 03:23:36;;;;;;;1999.90;999.90;;;21.20;99.90;;;;;;5013959;28;20528;-67
2023/06/19 03:26:02;;;;;;;1999.90;999.90;;;21.20;99.90;;;;;;5014675;28;20948;-67
2023/06/19 03:28:28;;;;;;;1999.90;999.90;;;21.00;99.90;;;;;;5013656;28;20213;-68
2023/06/19 03:30:54;;;;;;;1999.90;999.90;;;20.90;99.90;;;;;;5013602;28;20181;-68
2023/06/19 03:33:19;;;;;;;1999.90;999.90;;;20.80;99.90;;;;;;5012517;28;20239;-67
2023/06/19 03:35:45;;;;;;;1999.90;999.90;;;20.80;99.90;;;;;;5013709;28;20228;-68
2023/06/19 03:38:11;;;;;;;1999.90;999.90;;;20.70;99.90;;;;;;5012953;28;20531;-67
2023/06/19 03:40:36;;;;;;;1999.90;999.90;;;20.70;99.90;;;;;;5017030;28;20662;-67
2023/06/19 03:43:02;;;;;;;1999.90;999.90;;;20.70;99.90;;;;;;5016760;28;20175;-67
2023/06/19 03:45:28;;;;;;;1999.90;999.90;;;20.60;99.90;;;;;;5016353;28;20220;-67
2023/06/19 03:47:53;;;;;;;1999.90;999.90;;;20.60;99.90;;;;;;5016496;28;20454;-67
2023/06/19 03:50:19;;;;;;;1999.90;999.90;;;20.70;99.90;;;;;;5016870;28;20170;-67
2023/06/19 03:52:45;;;;;;;1999.90;999.90;;;20.70;99.90;;;;;;5016374;28;20189;-68
2023/06/19 03:55:10;;;;;;;1999.90;999.90;;;20.70;99.90;;;;;;5016179;28;20404;-68
2023/06/19 03:57:36;;;;;;;1999.90;999.90;;;20.80;99.90;;;;;;5017350;28;20174;-67
2023/06/19 04:00:02;;;;;;;1999.90;999.90;;;20.70;99.90;;;;;;5017578;28;20251;-68
2023/06/19 04:02:30;;;;;;;1999.90;999.90;;;20.80;99.90;;;;;;5017320;28;20584;-67
2023/06/19 04:04:56;;;;;;;1999.90;999.90;;;20.90;99.90;;;;;;5017213;28;20469;-67
2023/06/19 04:07:21;;;;;;;1999.90;999.90;;;20.90;99.90;;;;;;5017455;28;20195;-67
2023/06/19 04:09:47;;;;;;;1999.90;999.90;;;20.90;99.90;;;;;;5017169;28;20172;-67
2023/06/19 04:12:13;;;;;;;1999.90;999.90;;;20.90;99.90;;;;;;5016916;28;20589;-66
2023/06/19 04:14:38;;;;;;;1999.90;999.90;;;21.00;99.90;;;;;;5017500;28;20203;-67
2023/06/19 04:17:04;;;;;;;1999.90;999.90;;;20.90;99.90;;;;;;5017262;28;20193;-67
2023/06/19 04:19:30;;;;;;;1999.90;999.90;;;20.80;99.90;;;;;;5016969;28;20188;-66
2023/06/19 04:21:55;;;;;;;1999.90;999.90;;;20.80;99.90;;;;;;5016742;28;20259;-66
2023/06/19 04:24:21;;;;;;;1999.90;999.90;;;20.80;99.90;;;;;;5016653;28;20195;-66
2023/06/19 04:26:46;;;;;;;1999.90;999.90;;;20.80;99.90;;;;;;5016563;28;20172;-67
2023/06/19 04:29:16;;;;;;;1999.90;999.90;;;20.90;99.90;;;;;;5016760;28;20173;-66
2023/06/19 04:31:46;;;;;;;1999.90;999.90;;;20.90;99.90;;;;;;5015604;28;20841;-67
2023/06/19 04:34:15;;;;;;;1999.90;999.90;;;20.80;99.90;;;;;;5017418;28;20538;-68
2023/06/19 04:36:41;;;;;;;1999.90;999.90;;;20.90;99.90;;;;;;5019894;28;20461;-67
2023/06/19 04:39:07;;;;;;;1999.90;999.90;;;20.90;99.90;;;;;;5017364;28;20900;-67
2023/06/19 04:41:32;;;;;;;1999.90;999.90;;;20.90;99.90;;;;;;5016727;28;20205;-66
2023/06/19 04:43:58;;;;;;;1999.90;999.90;;;21.00;99.90;;;;;;5016386;28;20471;-67
2023/06/19 04:46:23;;;;;;;1999.90;999.90;;;20.90;99.90;;;;;;5017033;28;20180;-67
2023/06/19 04:48:50;;;;;;;1999.90;999.90;;;20.90;99.90;;;;;;5014941;28;20214;-67
2023/06/19 04:51:20;;;;;;;1999.90;999.90;;;20.90;99.90;;;;;;5014029;28;20176;-67
2023/06/19 04:53:46;;;;;;;1999.90;999.90;;;20.90;99.90;;;;;;5014567;28;20400;-67
2023/06/19 04:56:12;;;;;;;1999.90;999.90;;;20.80;99.90;;;;;;5014710;28;20408;-67
2023/06/19 04:58:45;;;;;;;1999.90;999.90;;;20.90;99.90;;;;;;5014593;28;20669;-67
2023/06/19 05:01:13;;;;;;;1999.90;999.90;;;20.90;99.90;;;;;;5014322;28;20215;-67
2023/06/19 05:03:45;;;;;;;1999.90;999.90;;;20.90;99.90;;;;;;5014716;28;20446;-67
2023/06/19 05:06:11;;;;;;;1999.90;999.90;;;20.90;99.90;;;;;;5014615;28;20418;-67
2023/06/19 05:08:37;;;;;;;1999.90;999.90;;;20.90;99.90;;;;;;5014373;28;20541;-68
2023/06/19 05:11:03;;;;;;;1999.90;999.90;;;21.00;99.90;;;;;;5014144;28;20601;-67
2023/06/19 05:13:28;;;;;;;1999.90;999.90;;;21.00;99.90;;;;;;5014347;28;20179;-67
2023/06/19 05:15:55;;;;;;;1999.90;999.90;;;21.00;99.90;;;;;;5014399;28;20206;-67
2023/06/19 05:18:21;;;;;;;1999.90;999.90;;;21.10;99.90;;;;;;5014222;28;20210;-68
2023/06/19 05:20:47;;;;;;;1999.90;999.90;;;21.10;99.90;;;;;;5014216;28;20409;-67
2023/06/19 05:23:12;;;;;;;1999.90;999.90;;;21.10;99.90;;;;;;5013975;28;20555;-67
2023/06/19 05:25:38;;;;;;;1999.90;999.90;;;21.10;99.90;;;;;;5013955;28;20201;-67
2023/06/19 05:28:03;;;;;;;1999.90;999.90;;;21.20;99.90;;;;;;5013956;28;20750;-67
2023/06/19 05:30:29;;;;;;;1999.90;999.90;;;21.20;99.90;;;;;;5014323;28;20183;-67
2023/06/19 05:32:55;;;;;;;1999.90;999.90;;;21.20;99.90;;;;;;5013681;28;20669;-67
2023/06/19 05:35:21;;;;;;;1999.90;999.90;;;21.30;99.90;;;;;;5013932;28;20207;-67
2023/06/19 05:37:47;;;;;;;1999.90;999.90;;;21.40;99.90;;;;;;5013943;28;20415;-68
2023/06/19 05:40:13;;;;;;;1999.90;999.90;;;21.50;99.90;;;;;;5013783;28;20899;-67
2023/06/19 05:42:39;;;;;;;1999.90;999.90;;;21.60;99.90;;;;;;5013476;28;20618;-67
2023/06/19 05:45:05;;;;;;;1999.90;999.90;;;21.70;99.90;;;;;;5013589;28;20302;-67
2023/06/19 05:47:31;;;;;;;1999.90;999.90;;;21.80;99.90;;;;;;5013629;28;20487;-67
2023/06/19 05:49:57;;;;;;;1999.90;999.90;;;21.90;99.90;;;;;;5013689;28;20833;-67
2023/06/19 05:52:23;;;;;;;1999.90;999.90;;;21.90;99.90;;;;;;5013356;28;20187;-67
2023/06/19 05:54:49;;;;;;;1999.90;999.90;;;22.00;99.90;;;;;;5013484;28;20403;-67
2023/06/19 05:57:20;;;;;;;1999.90;999.90;;;22.10;99.90;;;;;;5013532;28;20423;-68
2023/06/19 05:59:46;;;;;;;1999.90;999.90;;;22.00;99.90;;;;;;5013570;28;20187;-68
2023/06/19 06:02:12;;;;;;;1999.90;999.90;;;22.00;99.90;;;;;;5012390;28;20408;-67
2023/06/19 06:04:38;;;;;;;1999.90;999.90;;;22.10;99.90;;;;;;5013105;28;20402;-68
2023/06/19 06:07:03;;;;;;;1999.90;999.90;;;22.10;99.90;;;;;;5013337;28;20196;-67
2023/06/19 06:09:29;;;;;;;1999.90;999.90;;;22.20;99.90;;;;;;5013084;28;20185;-67
2023/06/19 06:11:54;;;;;;;1999.90;999.90;;;22.30;99.90;;;;;;5012879;28;20210;-68
2023/06/19 06:14:20;;;;;;;1999.90;999.90;;;22.40;99.90;;;;;;5013129;28;20184;-67
2023/06/19 06:16:46;;;;;;;1999.90;999.90;;;22.50;99.90;;;;;;5013276;28;20550;-67
2023/06/19 06:19:11;;;;;;;1999.90;999.90;;;22.60;99.90;;;;;;5013251;28;20548;-66
2023/06/19 06:21:37;;;;;;;1999.90;999.90;;;22.90;99.90;;;;;;5012930;28;20185;-67
2023/06/19 06:24:09;;;;;;;1999.90;999.90;;;22.90;99.90;;;;;;5109952;27;20646;-68
2023/06/19 06:26:35;;;;;;;1999.90;999.90;;;23.00;99.90;;;;;;5109806;28;20424;-69
2023/06/19 06:29:01;;;;;;;1999.90;999.90;;;23.00;99.90;;;;;;5110060;28;20180;-69
2023/06/19 06:31:27;;;;;;;1999.90;999.90;;;23.10;99.90;;;;;;5109484;28;20760;-69
2023/06/19 06:33:53;;;;;;;1999.90;999.90;;;23.10;99.90;;;;;;5109689;28;20189;-69
2023/06/19 06:36:18;;;;;;;1999.90;999.90;;;23.10;99.90;;;;;;5109838;28;20392;-68
2023/06/19 06:38:44;;;;;;;1999.90;999.90;;;23.20;99.90;;;;;;5109625;28;20173;-68
2023/06/19 06:41:09;;;;;;;1999.90;999.90;;;23.30;99.90;;;;;;5109388;28;20180;-69
2023/06/19 06:43:35;;;;;;;1999.90;999.90;;;23.40;99.90;;;;;;5109422;28;20242;-70
2023/06/19 06:46:00;;;;;;;1999.90;999.90;;;23.40;99.90;;;;;;5109659;28;20170;-68
2023/06/19 06:48:26;;;;;;;1999.90;999.90;;;23.40;99.90;;;;;;5109589;28;20534;-68
2023/06/19 06:50:58;;;;;;;1999.90;999.90;;;23.30;99.90;;;;;;5109306;28;20181;-69
2023/06/19 06:53:25;;;;;;;1999.90;999.90;;;23.10;99.90;;;;;;5109247;28;20273;-67
2023/06/19 06:55:51;;;;;;;1999.90;999.90;;;23.00;99.90;;;;;;5109541;28;20753;-69
2023/06/19 06:58:18;;;;;;;1999.90;999.90;;;23.00;99.90;;;;;;5109470;28;20382;-69
2023/06/19 07:00:44;;;;;;;1999.90;999.90;;;22.90;99.90;;;;;;5109951;28;20382;-68
2023/06/19 07:03:09;;;;;;;1999.90;999.90;;;22.80;99.90;;;;;;5110190;28;20451;-68
2023/06/19 07:05:35;;;;;;;1999.90;999.90;;;22.80;99.90;;;;;;5110292;28;20190;-69
2023/06/19 07:08:01;;;;;;;1999.90;999.90;;;22.70;99.90;;;;;;5110352;28;20177;-69
2023/06/19 07:10:26;;;;;;;1999.90;999.90;;;22.70;99.90;;;;;;5110596;28;20166;-68
2023/06/19 07:12:52;;;;;;;1999.90;999.90;;;22.60;99.90;;;;;;5110126;28;20178;-68
2023/06/19 07:15:17;;;;;;;1999.90;999.90;;;22.60;99.90;;;;;;5110495;28;20197;-68
2023/06/19 07:17:44;;;;;;;1999.90;999.90;;;22.60;99.90;;;;;;5110460;28;20170;-69
2023/06/19 07:20:10;;;;;;;1999.90;999.90;;;22.60;99.90;;;;;;5110192;28;20173;-68
2023/06/19 07:22:36;;;;;;;1999.90;999.90;;;22.60;99.90;;;;;;5109659;28;20453;-68
2023/06/19 07:25:03;;;;;;;1999.90;999.90;;;22.60;99.90;;;;;;5110041;28;20267;-68
2023/06/19 07:27:29;;;;;;;1999.90;999.90;;;22.60;99.90;;;;;;5109987;28;20805;-68
2023/06/19 07:29:55;;;;;;;1999.90;999.90;;;22.60;99.90;;;;;;5110278;28;20864;-68
2023/06/19 07:32:20;;;;;;;1999.90;999.90;;;22.70;99.90;;;;;;5109697;28;20381;-68
2023/06/19 07:34:46;;;;;;;1999.90;999.90;;;22.90;99.90;;;;;;5100447;28;20679;-69
2023/06/19 07:37:17;;;;;;;1999.90;999.90;;;22.90;99.90;;;;;;5096445;28;20192;-68
2023/06/19 07:39:47;;;;;;;1999.90;999.90;;;22.90;99.90;;;;;;5096394;28;20182;-69
2023/06/19 07:42:16;;;;;;;1999.90;999.90;;;22.80;99.90;;;;;;5095573;28;20459;-68
2023/06/19 07:44:43;;;;;;;1999.90;999.90;;;22.70;99.90;;;;;;5096146;28;20409;-69
2023/06/19 07:47:09;;;;;;;1999.90;999.90;;;22.70;99.90;;;;;;5096090;28;20386;-69
2023/06/19 07:49:35;;;;;;;1999.90;999.90;;;22.70;99.90;;;;;;5096273;28;20414;-69
2023/06/19 07:52:02;;;;;;;1999.90;999.90;;;22.70;99.90;;;;;;5095772;28;20273;-68
2023/06/19 07:54:27;;;;;;;1999.90;999.90;;;22.80;99.90;;;;;;5095585;28;20984;-68
2023/06/19 07:56:53;;;;;;;1999.90;999.90;;;22.70;99.90;;;;;;5095987;28;20463;-68
2023/06/19 07:59:19;;;;;;;1999.90;999.90;;;22.80;99.90;;;;;;5095819;28;20170;-68
2023/06/19 08:01:45;;;;;;;1999.90;999.90;;;22.80;99.90;;;;;;5091982;28;20203;-70
2023/06/19 08:04:10;;;;;;;1999.90;999.90;;;22.80;99.90;;;;;;5094068;28;20972;-70
2023/06/19 08:06:36;;;;;;;1999.90;999.90;;;22.90;99.90;;;;;;5093839;28;20183;-69
2023/06/19 08:09:02;;;;;;;1999.90;999.90;;;22.90;99.90;;;;;;5094334;28;20184;-69
2023/06/19 08:11:28;;;;;;;1999.90;999.90;;;23.10;99.90;;;;;;5093990;28;20172;-69
2023/06/19 08:13:54;;;;;;;1999.90;999.90;;;23.20;99.90;;;;;;5094003;28;20489;-69
2023/06/19 08:16:20;;;;;;;1999.90;999.90;;;23.30;99.90;;;;;;5094561;28;20181;-69
2023/06/19 08:18:45;;;;;;;1999.90;999.90;;;23.50;99.90;;;;;;5094626;28;20177;-70
2023/06/19 08:21:12;;;;;;;1999.90;999.90;;;23.60;99.90;;;;;;5093734;28;20413;-69
2023/06/19 08:23:39;;;;;;;1999.90;999.90;;;23.80;99.90;;;;;;5093306;28;20202;-71
2023/06/19 08:26:05;;;;;;;1999.90;999.90;;;23.70;99.90;;;;;;5093719;28;20401;-70
2023/06/19 08:28:33;;;;;;;1999.90;999.90;;;23.70;99.90;;;;;;5082016;28;20471;-68
2023/06/19 08:30:59;;;;;;;1999.90;999.90;;;23.80;99.90;;;;;;5082837;28;20439;-69
2023/06/19 08:33:25;;;;;;;1999.90;999.90;;;23.80;99.90;;;;;;5086202;28;21092;-68
2023/06/19 08:35:50;;;;;;;1999.90;999.90;;;23.80;99.90;;;;;;5093572;28;20202;-70
2023/06/19 08:38:16;;;;;;;1999.90;999.90;;;24.00;99.90;;;;;;5088657;28;20171;-70
2023/06/19 08:40:43;;;;;;;1999.90;999.90;;;24.30;99.90;;;;;;5093736;28;20214;-70
2023/06/19 08:43:08;;;;;;;1999.90;999.90;;;24.50;99.90;;;;;;5093423;28;20198;-69
2023/06/19 08:45:34;;;;;;;1999.90;999.90;;;24.50;99.90;;;;;;5092182;28;20410;-69
2023/06/19 08:48:02;;;;;;;1999.90;999.90;;;24.50;99.90;;;;;;5093372;28;20620;-70
2023/06/19 08:50:27;;;;;;;1999.90;999.90;;;24.50;99.90;;;;;;5093633;28;20186;-69
2023/06/19 08:52:54;;;;;;;1999.90;999.90;;;24.50;99.90;;;;;;5092936;28;20461;-69
2023/06/19 08:55:20;;;;;;;1999.90;999.90;;;24.60;99.90;;;;;;5093184;28;20186;-70
2023/06/19 08:57:49;;;;;;;1999.90;999.90;;;24.60;99.90;;;;;;5093045;28;20371;-69
2023/06/19 09:00:25;;;;;;;1999.90;999.90;;;24.50;99.90;;;;;;5093380;28;20647;-69
2023/06/19 09:02:51;;;;;;;1999.90;999.90;;;24.60;99.90;;;;;;5084412;28;20437;-69
2023/06/19 09:05:18;;;;;;;1999.90;999.90;;;24.50;99.90;;;;;;5093286;28;20395;-69
2023/06/19 09:07:53;;;;;;;1999.90;999.90;;;24.50;99.90;;;;;;5093176;28;20392;-70
2023/06/19 09:10:19;;;;;;;1999.90;999.90;;;24.50;99.90;;;;;;5098316;28;20400;-69
2023/06/19 09:13:05;;;;;;;1999.90;999.90;;;24.60;99.90;;;;;;5092550;28;20379;-69
2023/06/19 09:15:32;;;;;;;1999.90;999.90;;;24.70;99.90;;;;;;5093075;28;20939;-69
2023/06/19 09:18:06;;;;;;;1999.90;999.90;;;24.80;99.90;;;;;;5093242;28;20412;-69
2023/06/19 09:20:34;;;;;;;1999.90;999.90;;;24.70;99.90;;;;;;5092830;28;20382;-68
2023/06/19 09:23:00;;;;;;;1999.90;999.90;;;24.80;99.90;;;;;;5092348;28;20463;-69
2023/06/19 09:25:26;;;;;;;1999.90;999.90;;;24.80;99.90;;;;;;5092774;28;20421;-69
2023/06/19 09:27:56;;;;;;;1999.90;999.90;;;24.60;99.90;;;;;;5092497;28;20403;-70
2023/06/19 09:30:21;;;;;;;1999.90;999.90;;;24.60;99.90;;;;;;5091233;28;20857;-69
2023/06/19 09:32:47;;;;;;;1999.90;999.90;;;24.70;99.90;;;;;;5091303;28;20390;-70
2023/06/19 09:35:13;;;;;;;1999.90;999.90;;;24.90;99.90;;;;;;5091971;28;20193;-69
2023/06/19 09:37:40;;;;;;;1999.90;999.90;;;25.10;99.90;;;;;;5085230;28;20174;-69
2023/06/19 09:40:10;;;;;;;1999.90;999.90;;;25.30;99.90;;;;;;5092353;28;20673;-69
2023/06/19 09:42:43;;;;;;;1999.90;999.90;;;25.50;99.90;;;;;;5092478;28;20844;-69
2023/06/19 09:45:11;;;;;;;1999.90;999.90;;;25.70;99.90;;;;;;5092563;28;20417;-70
2023/06/19 09:47:46;;;;;;;1999.90;999.90;;;25.80;99.90;;;;;;5092410;28;20398;-69
2023/06/19 09:50:15;;;;;;;1999.90;999.90;;;25.80;97.90;;;;;;5093897;28;20402;-69
2023/06/19 09:52:42;;;;;;;1999.90;999.90;;;25.70;96.70;;;;;;5097058;28;20404;-69
2023/06/19 09:55:10;;;;;;;1999.90;999.90;;;25.80;96.80;;;;;;5098878;28;20399;-69
2023/06/19 09:57:38;;;;;;;1999.90;999.90;;;25.90;98.00;;;;;;5094987;28;20378;-69
2023/06/19 10:00:12;;;;;;;1999.90;999.90;;;26.00;97.10;;;;;;5097684;28;20404;-69
2023/06/19 10:02:41;;;;;;;1999.90;999.90;;;26.20;99.50;;;;;;5097162;28;20492;-68
2023/06/19 10:05:12;;;;;;;1999.90;999.90;;;26.20;96.80;;;;;;5098361;28;20434;-68
2023/06/19 10:07:40;;;;;;;1999.90;999.90;;;26.20;97.10;;;;;;5096926;28;20388;-68
2023/06/19 10:10:26;;;;;;;1999.90;999.90;;;26.30;96.60;;;;;;5096438;28;20404;-68
2023/06/19 10:12:55;;;;;;;1999.90;999.90;;;26.40;95.80;;;;;;5094957;28;20870;-69
2023/06/19 10:15:29;;;;;;;1999.90;999.90;;;26.40;95.10;;;;;;5093798;28;20420;-68
2023/06/19 10:18:03;;;;;;;1999.90;999.90;;;26.30;93.50;;;;;;5095232;28;20412;-68
2023/06/19 10:20:33;;;;;;;1999.90;999.90;;;26.40;94.10;;;;;;5091821;28;20393;-68
2023/06/19 10:23:07;;;;;;;1999.90;999.90;;;26.50;91.40;;;;;;5091623;28;20468;-68
2023/06/19 10:25:35;;;;;;;1999.90;999.90;;;26.60;90.50;;;;;;5092120;28;20905;-68
2023/06/19 10:28:05;;;;;;;1999.90;999.90;;;26.80;90.90;;;;;;5091878;28;20827;-68
2023/06/19 10:30:31;;;;;;;1999.90;999.90;;;27.10;88.30;;;;;;5092709;28;20442;-68
2023/06/19 10:32:57;;;;;;;1999.90;999.90;;;27.10;82.70;;;;;;5092341;28;20416;-69
2023/06/19 10:35:24;;;;;;;1999.90;999.90;;;27.20;75.40;;;;;;5092043;28;20840;-68
2023/06/19 10:37:50;;;;;;;1999.90;999.90;;;27.30;73.10;;;;;;5092291;28;20258;-68
2023/06/19 10:40:16;;;;;;;1999.90;999.90;;;27.40;71.90;;;;;;5092557;28;20436;-68
2023/06/19 10:42:43;;;;;;;1999.90;999.90;;;27.50;69.70;;;;;;5091900;28;20452;-69
2023/06/19 10:45:12;;;;;;;1999.90;999.90;;;27.60;65.00;;;;;;5091752;28;20428;-69
2023/06/19 10:47:39;;;;;;;1999.90;999.90;;;27.60;63.00;;;;;;5090817;28;20400;-68
2023/06/19 10:50:14;;;;;;;1999.90;999.90;;;27.60;60.00;;;;;;5091840;28;20407;-70
2023/06/19 10:52:42;;;;;;;1999.90;999.90;;;27.70;64.80;;;;;;5091337;28;20778;-70
2023/06/19 10:55:08;;;;;;;1999.90;999.90;;;27.70;57.10;;;;;;5091095;28;20403;-70
2023/06/19 10:57:34;;;;;;;1999.90;999.90;;;27.70;58.20;;;;;;5091337;28;20412;-70
2023/06/19 10:59:59;;;;;;;1999.90;999.90;;;27.70;59.50;;;;;;5091495;28;20408;-69
2023/06/19 11:02:25;;;;;;;1999.90;999.90;;;27.80;57.40;;;;;;5090947;28;20585;-70
2023/06/19 11:04:54;;;;;;;1999.90;999.90;;;28.10;59.80;;;;;;5090857;28;20218;-70
2023/06/19 11:07:22;;;;;;;1999.90;999.90;;;28.20;52.80;;;;;;5091334;28;20215;-70
2023/06/19 11:09:48;;;;;;;1999.90;999.90;;;28.30;52.20;;;;;;5092760;28;20396;-70
2023/06/19 11:12:22;;;;;;;1999.90;999.90;;;28.10;55.20;;;;;;5094325;28;20399;-71
2023/06/19 11:14:49;;;;;;;1999.90;999.90;;;28.00;51.80;;;;;;5095086;28;20430;-70
2023/06/19 11:17:15;;;;;;;1999.90;999.90;;;27.70;54.20;;;;;;5095015;28;20451;-70
2023/06/19 11:19:43;;;;;;;1999.90;999.90;;;27.80;53.40;;;;;;5094655;28;20901;-70
2023/06/19 11:22:09;;;;;;;1999.90;999.90;;;27.70;53.40;;;;;;5094260;28;20448;-70
2023/06/19 11:24:35;;;;;;;1999.90;999.90;;;27.80;51.30;;;;;;5095071;28;20909;-70
2023/06/19 11:27:01;;;;;;;1999.90;999.90;;;28.10;50.30;;;;;;5094407;28;20400;-70
2023/06/19 11:29:31;;;;;;;1999.90;999.90;;;28.20;47.30;;;;;;5094921;28;20178;-71
2023/06/19 11:32:14;;;;;;;1999.90;999.90;;;28.20;45.30;;;;;;5093535;28;20399;-70
2023/06/19 11:34:41;;;;;;;1999.90;999.90;;;28.30;48.30;;;;;;5094482;28;20412;-70
2023/06/19 11:37:17;;;;;;;1999.90;999.90;;;28.30;49.10;;;;;;5094663;28;20408;-71
2023/06/19 11:39:47;;;;;;;1999.90;999.90;;;28.40;44.60;;;;;;5094338;28;20393;-70
2023/06/19 11:42:13;;;;;;;1999.90;999.90;;;28.60;43.50;;;;;;5094428;28;20438;-70
2023/06/19 11:45:03;;;;;;;1999.90;999.90;;;28.80;41.90;;;;;;5094466;28;20428;-70
2023/06/19 11:47:32;;;;;;;1999.90;999.90;;;29.10;40.40;;;;;;5094243;28;20381;-69
2023/06/19 11:49:58;;;;;;;1999.90;999.90;;;29.20;41.40;;;;;;5094466;28;20396;-71
2023/06/19 11:52:24;;;;;;;1999.90;999.90;;;29.40;40.40;;;;;;5093981;28;20416;-70
2023/06/19 11:54:49;;;;;;;1999.90;999.90;;;29.50;36.60;;;;;;5093797;28;20515;-70
2023/06/19 11:57:15;;;;;;;1999.90;999.90;;;29.50;38.00;;;;;;5094145;28;20171;-71